createdAt,value
2019-05-17T00:01:57.830Z,99.90
2019-05-17T00:04:27.347Z,99.90
2019-05-17T00:06:57.110Z,99.90
2019-05-17T00:09:26.891Z,99.90
2019-05-17T00:11:56.833Z,99.90
2019-05-17T00:14:27.135Z,99.90
2019-05-17T00:16:57.296Z,99.90
2019-05-17T00:19:27.021Z,99.90
2019-05-17T00:21:56.794Z,99.90
2019-05-17T00:24:26.658Z,99.90
2019-05-17T00:26:58.436Z,99.90
2019-05-17T00:29:27.451Z,99.90
2019-05-17T00:31:56.957Z,99.90
2019-05-17T00:34:27.056Z,99.90
2019-05-17T00:36:57.410Z,99.90
2019-05-17T00:39:27.252Z,99.90
2019-05-17T00:41:57.295Z,99.90
2019-05-17T00:44:27.239Z,99.90
2019-05-17T00:46:58.880Z,99.90
2019-05-17T00:49:28.049Z,99.90
2019-05-17T00:51:57.557Z,99.90
2019-05-17T00:54:27.035Z,99.90
2019-05-17T00:56:56.784Z,99.90
2019-05-17T00:59:26.438Z,99.90
2019-05-17T01:01:56.269Z,99.90
2019-05-17T01:04:27.629Z,99.90
2019-05-17T01:06:56.921Z,99.90
2019-05-17T01:09:27.339Z,99.90
2019-05-17T01:11:56.909Z,99.90
2019-05-17T01:14:26.627Z,99.90
2019-05-17T01:16:56.579Z,99.90
2019-05-17T01:19:27.038Z,99.90
2019-05-17T01:21:56.929Z,99.90
2019-05-17T01:24:27.442Z,99.90
2019-05-17T01:26:57.473Z,99.90
2019-05-17T01:29:27.085Z,99.90
2019-05-17T01:31:57.090Z,99.90
2019-05-17T01:34:27.236Z,99.90
2019-05-17T01:36:57.033Z,99.90
2019-05-17T01:39:26.933Z,99.90
2019-05-17T01:41:57.393Z,99.90
2019-05-17T01:44:27.287Z,99.90
2019-05-17T01:46:57.052Z,99.90
2019-05-17T01:49:27.066Z,99.90
2019-05-17T01:51:56.934Z,99.90
2019-05-17T01:54:27.043Z,99.90
2019-05-17T01:56:56.734Z,99.90
2019-05-17T01:59:26.838Z,99.90
2019-05-17T02:01:57.952Z,99.90
2019-05-17T02:04:27.421Z,99.90
2019-05-17T02:06:57.410Z,99.90
2019-05-17T02:09:37.179Z,99.90
2019-05-17T02:11:58.169Z,99.90
2019-05-17T02:14:27.632Z,99.90
2019-05-17T02:16:57.398Z,99.90
2019-05-17T02:19:27.003Z,99.90
2019-05-17T02:21:57.009Z,99.90
2019-05-17T02:24:27.522Z,99.90
2019-05-17T02:26:57.179Z,99.90
2019-05-17T02:29:26.603Z,99.90
2019-05-17T02:31:56.802Z,99.90
2019-05-17T02:34:26.277Z,99.90
2019-05-17T02:36:55.705Z,99.90
2019-05-17T02:39:25.181Z,99.90
2019-05-17T02:41:54.628Z,99.90
2019-05-17T02:44:24.089Z,99.90
2019-05-17T02:46:53.884Z,99.90
2019-05-17T02:49:23.813Z,99.90
2019-05-17T02:51:53.256Z,99.90
2019-05-17T02:54:23.545Z,99.90
2019-05-17T02:56:53.925Z,99.90
2019-05-17T02:59:23.627Z,99.90
2019-05-17T03:01:53.103Z,99.90
2019-05-17T03:04:23.649Z,99.90
2019-05-17T03:06:53.521Z,99.90
2019-05-17T03:09:23.161Z,99.90
2019-05-17T03:11:56.606Z,99.90
2019-05-17T03:14:23.779Z,99.90
2019-05-17T03:16:53.780Z,99.90
2019-05-17T03:19:23.702Z,99.90
2019-05-17T03:21:53.707Z,99.90
2019-05-17T03:24:24.112Z,99.90
2019-05-17T03:26:53.566Z,99.90
2019-05-17T03:29:23.070Z,99.90
2019-05-17T03:32:00.200Z,99.90
2019-05-17T03:34:27.145Z,99.90
2019-05-17T03:36:57.235Z,99.90
2019-05-17T03:39:26.766Z,99.90
2019-05-17T03:41:56.219Z,99.90
2019-05-17T03:44:25.707Z,99.90
2019-05-17T03:46:55.212Z,99.90
2019-05-17T03:49:24.665Z,99.90
2019-05-17T03:51:54.251Z,99.90
2019-05-17T03:54:23.726Z,99.90
2019-05-17T03:56:53.467Z,99.90
2019-05-17T03:59:24.230Z,99.90
2019-05-17T04:01:53.998Z,99.90
2019-05-17T04:04:23.534Z,99.90
2019-05-17T04:06:52.996Z,99.90
2019-05-17T04:09:22.682Z,99.90
2019-05-17T04:11:53.535Z,99.90
2019-05-17T04:14:23.400Z,99.90
2019-05-17T04:16:53.658Z,99.90
2019-05-17T04:19:23.349Z,99.90
2019-05-17T04:21:53.675Z,99.90
2019-05-17T04:24:23.442Z,99.90
2019-05-17T04:26:52.839Z,99.90
2019-05-17T04:29:22.815Z,99.90
2019-05-17T04:31:54.588Z,99.90
2019-05-17T04:34:23.634Z,99.90
2019-05-17T04:36:53.114Z,99.90
2019-05-17T04:39:22.780Z,99.90
2019-05-17T04:41:54.877Z,99.90
2019-05-17T04:44:23.533Z,99.90
2019-05-17T04:46:53.736Z,99.90
2019-05-17T04:49:24.218Z,99.90
2019-05-17T04:51:53.974Z,99.90
2019-05-17T04:54:23.417Z,99.90
2019-05-17T04:56:53.430Z,99.90
2019-05-17T04:59:24.317Z,99.90
2019-05-17T05:01:54.310Z,99.90
2019-05-17T05:04:23.758Z,99.90
2019-05-17T05:06:53.256Z,99.90
2019-05-17T05:09:23.206Z,99.90
2019-05-17T05:12:00.720Z,99.90
2019-05-17T05:14:23.996Z,99.90
2019-05-17T05:16:53.466Z,99.90
2019-05-17T05:19:22.915Z,99.90
2019-05-17T05:21:52.398Z,99.90
2019-05-17T05:24:22.247Z,99.90
2019-05-17T05:26:51.897Z,99.90
2019-05-17T05:29:21.693Z,99.90
2019-05-17T05:31:51.771Z,99.90
2019-05-17T05:34:21.711Z,99.90
2019-05-17T05:36:52.480Z,99.90
2019-05-17T05:39:22.863Z,99.90
2019-05-17T05:42:05.057Z,99.90
2019-05-17T05:44:23.689Z,99.90
2019-05-17T05:46:53.170Z,99.90
2019-05-17T05:49:22.623Z,99.90
2019-05-17T05:51:52.427Z,99.90
2019-05-17T05:54:22.528Z,99.90
2019-05-17T05:56:52.520Z,99.90
2019-05-17T05:59:22.554Z,99.90
2019-05-17T06:01:52.521Z,99.90
2019-05-17T06:04:22.431Z,99.90
2019-05-17T06:06:52.273Z,99.90
2019-05-17T06:09:22.321Z,99.90
2019-05-17T06:11:52.085Z,99.90
2019-05-17T06:14:21.726Z,99.90
2019-05-17T06:16:52.050Z,99.90
2019-05-17T06:19:22.472Z,99.90
2019-05-17T06:21:52.161Z,99.90
2019-05-17T06:24:22.517Z,99.90
2019-05-17T06:26:52.606Z,99.90
2019-05-17T06:29:22.326Z,99.90
2019-05-17T06:31:51.980Z,99.90
2019-05-17T06:34:22.327Z,99.90
2019-05-17T06:36:52.774Z,99.90
2019-05-17T06:39:22.589Z,99.90
2019-05-17T06:41:52.331Z,99.90
2019-05-17T06:44:21.876Z,99.90
2019-05-17T06:46:51.955Z,99.90
2019-05-17T06:49:22.477Z,99.90
2019-05-17T06:51:52.111Z,99.90
2019-05-17T06:54:21.723Z,99.90
2019-05-17T06:56:52.536Z,99.90
2019-05-17T06:59:22.206Z,99.90
2019-05-17T07:01:51.670Z,99.90
2019-05-17T07:04:21.099Z,99.90
2019-05-17T07:07:10.656Z,99.90
2019-05-17T07:09:40.125Z,99.90
2019-05-17T07:12:10.477Z,99.90
2019-05-17T07:14:40.213Z,99.90
2019-05-17T07:17:09.949Z,99.90
2019-05-17T07:19:40.205Z,99.90
2019-05-17T07:22:09.899Z,99.90
2019-05-17T07:24:39.798Z,99.90
2019-05-17T07:27:09.934Z,99.90
2019-05-17T07:29:40.325Z,99.90
2019-05-17T07:32:10.021Z,99.90
2019-05-17T07:34:40.102Z,99.90
2019-05-17T07:37:10.639Z,99.90
2019-05-17T07:39:42.357Z,99.90
2019-05-17T07:42:12.675Z,99.90
2019-05-17T07:44:44.044Z,99.90
2019-05-17T07:47:13.243Z,99.90
2019-05-17T07:49:42.699Z,99.90
2019-05-17T07:52:12.130Z,99.90
2019-05-17T07:54:41.611Z,99.90
2019-05-17T07:57:11.045Z,99.90
2019-05-17T07:59:40.580Z,99.90
2019-05-17T08:02:10.701Z,99.90
2019-05-17T08:04:40.786Z,99.90
2019-05-17T08:07:11.005Z,99.90
2019-05-17T08:09:40.748Z,99.90
2019-05-17T08:12:11.015Z,99.90
2019-05-17T08:14:40.662Z,99.90
2019-05-17T08:17:10.308Z,99.90
2019-05-17T08:19:40.308Z,99.90
2019-05-17T08:22:10.104Z,99.90
2019-05-17T08:24:40.055Z,99.90
2019-05-17T08:27:10.370Z,99.90
2019-05-17T08:29:41.734Z,99.90
2019-05-17T08:32:11.406Z,99.90
2019-05-17T08:34:42.959Z,99.90
2019-05-17T08:37:12.386Z,99.90
2019-05-17T08:39:41.914Z,99.90
2019-05-17T08:42:11.355Z,99.90
2019-05-17T08:44:40.811Z,99.90
2019-05-17T08:47:10.353Z,99.90
2019-05-17T08:49:40.333Z,99.90
2019-05-17T08:52:10.041Z,99.90
2019-05-17T08:54:42.753Z,99.90
2019-05-17T08:57:10.630Z,99.90
2019-05-17T08:59:40.573Z,99.90
2019-05-17T09:02:10.777Z,99.90
2019-05-17T09:04:40.643Z,99.90
2019-05-17T09:07:10.184Z,99.90
2019-05-17T09:09:39.644Z,99.90
2019-05-17T09:12:11.016Z,99.90
2019-05-17T09:14:40.263Z,99.90
2019-05-17T09:17:10.377Z,99.90
2019-05-17T09:19:39.819Z,99.90
2019-05-17T09:22:10.599Z,99.90
2019-05-17T09:24:40.114Z,99.90
2019-05-17T09:27:10.094Z,99.90
2019-05-17T09:29:40.346Z,99.90
2019-05-17T09:32:10.006Z,99.90
2019-05-17T09:34:40.450Z,99.90
2019-05-17T09:37:10.024Z,99.90
2019-05-17T09:39:40.275Z,99.90
2019-05-17T09:42:10.366Z,99.90
2019-05-17T09:44:40.486Z,99.90
2019-05-17T09:47:10.276Z,99.90
2019-05-17T09:49:39.730Z,99.90
2019-05-17T09:52:09.583Z,99.90
2019-05-17T09:54:45.128Z,99.90
2019-05-17T09:57:10.352Z,99.90
2019-05-17T09:59:40.540Z,99.90
2019-05-17T10:02:11.474Z,99.90
2019-05-17T10:04:41.034Z,99.90
2019-05-17T10:07:10.553Z,99.90
2019-05-17T10:09:40.185Z,99.90
2019-05-17T10:12:09.785Z,99.90
2019-05-17T10:14:39.253Z,99.90
2019-05-17T10:17:09.861Z,99.90
2019-05-17T10:19:40.230Z,99.90
2019-05-17T10:22:10.422Z,99.90
2019-05-17T10:24:42.464Z,99.90
2019-05-17T10:27:14.482Z,99.90
2019-05-17T10:29:42.749Z,99.90
2019-05-17T10:32:12.275Z,99.90
2019-05-17T10:34:41.739Z,99.90
2019-05-17T10:37:11.178Z,99.90
2019-05-17T10:39:41.767Z,99.90
2019-05-17T10:42:11.293Z,99.90
2019-05-17T10:44:46.555Z,99.90
2019-05-17T10:47:11.927Z,99.90
2019-05-17T10:49:41.390Z,99.90
2019-05-17T10:52:10.848Z,99.90
2019-05-17T10:54:40.412Z,99.90
2019-05-17T10:57:10.567Z,99.90
2019-05-17T10:59:40.093Z,99.90
2019-05-17T11:02:10.083Z,99.90
2019-05-17T11:05:00.675Z,99.90
2019-05-17T11:07:30.279Z,99.90
2019-05-17T11:10:00.536Z,99.90
2019-05-17T11:12:30.278Z,99.90
2019-05-17T11:15:10.290Z,99.90
2019-05-17T11:17:31.107Z,99.90
2019-05-17T11:20:00.749Z,99.90
2019-05-17T11:22:30.313Z,99.90
2019-05-17T11:24:59.757Z,99.90
2019-05-17T11:27:29.243Z,99.90
2019-05-17T11:29:58.704Z,99.90
2019-05-17T11:32:28.165Z,99.90
2019-05-17T11:34:57.613Z,99.90
2019-05-17T11:37:27.075Z,99.90
2019-05-17T11:39:56.502Z,99.90
2019-05-17T11:42:25.955Z,99.30
2019-05-17T11:44:55.400Z,99.90
2019-05-17T11:47:24.866Z,99.90
2019-05-17T11:49:54.366Z,99.90
2019-05-17T11:52:23.810Z,99.90
2019-05-17T11:54:53.230Z,99.90
2019-05-17T11:57:22.764Z,99.80
2019-05-17T11:59:52.205Z,99.90
2019-05-17T12:02:24.091Z,99.90
2019-05-17T12:04:53.576Z,99.90
2019-05-17T12:07:23.069Z,99.90
2019-05-17T12:09:52.481Z,99.90
2019-05-17T12:12:21.965Z,99.90
2019-05-17T12:14:51.410Z,99.90
2019-05-17T12:17:20.844Z,99.90
2019-05-17T12:19:50.325Z,99.90
2019-05-17T12:22:19.782Z,99.90
2019-05-17T12:24:49.311Z,99.90
2019-05-17T12:27:18.798Z,99.90
2019-05-17T12:29:48.249Z,99.90
2019-05-17T12:32:17.706Z,99.90
2019-05-17T12:34:47.349Z,99.90
2019-05-17T12:37:16.804Z,99.90
2019-05-17T12:39:46.254Z,99.90
2019-05-17T12:42:15.750Z,99.90
2019-05-17T12:44:45.171Z,99.90
2019-05-17T12:47:14.774Z,99.50
2019-05-17T12:49:45.448Z,99.90
2019-05-17T12:52:14.897Z,99.90
2019-05-17T12:54:44.333Z,99.50
2019-05-17T12:57:13.819Z,99.90
2019-05-17T12:59:43.255Z,99.80
2019-05-17T13:02:12.738Z,99.80
2019-05-17T13:04:42.189Z,99.90
2019-05-17T13:07:11.642Z,99.80
2019-05-17T13:09:45.778Z,99.90
2019-05-17T13:12:15.266Z,99.90
2019-05-17T13:14:44.718Z,99.60
2019-05-17T13:17:14.219Z,99.60
2019-05-17T13:19:43.653Z,99.50
2019-05-17T13:22:13.108Z,99.10
2019-05-17T13:24:42.603Z,99.30
2019-05-17T13:27:12.059Z,98.40
2019-05-17T13:29:41.489Z,98.50
2019-05-17T13:32:10.921Z,98.70
2019-05-17T13:34:40.439Z,98.50
2019-05-17T13:37:09.894Z,98.60
2019-05-17T13:39:39.363Z,98.30
2019-05-17T13:42:08.827Z,98.10
2019-05-17T13:44:38.315Z,97.90
2019-05-17T13:47:07.744Z,98.30
2019-05-17T13:49:37.224Z,98.50
2019-05-17T13:52:06.654Z,97.90
2019-05-17T13:54:36.276Z,97.80
2019-05-17T13:57:05.736Z,97.80
2019-05-17T13:59:35.297Z,98.00
2019-05-17T14:02:04.953Z,97.90
2019-05-17T14:04:34.445Z,96.80
2019-05-17T14:07:03.897Z,97.50
2019-05-17T14:09:33.327Z,97.40
2019-05-17T14:12:04.300Z,96.60
2019-05-17T14:14:34.419Z,96.70
2019-05-17T14:17:04.038Z,97.10
2019-05-17T14:19:33.496Z,96.90
2019-05-17T14:22:04.694Z,96.50
2019-05-17T14:24:34.118Z,96.30
2019-05-17T14:27:03.614Z,97.10
2019-05-17T14:29:33.066Z,97.00
2019-05-17T14:32:02.563Z,96.90
2019-05-17T14:34:32.048Z,97.20
2019-05-17T14:37:01.495Z,97.00
2019-05-17T14:39:30.951Z,96.40
2019-05-17T14:42:00.425Z,96.90
2019-05-17T14:44:29.894Z,96.50
2019-05-17T14:46:59.351Z,96.40
2019-05-17T14:49:28.819Z,96.70
2019-05-17T14:51:58.273Z,96.00
2019-05-17T14:54:27.723Z,96.60
2019-05-17T14:56:57.180Z,96.00
2019-05-17T14:59:26.639Z,96.40
2019-05-17T15:01:56.093Z,95.70
2019-05-17T15:04:29.666Z,95.70
2019-05-17T15:06:59.127Z,95.60
2019-05-17T15:09:28.767Z,95.80
2019-05-17T15:11:58.536Z,95.80
2019-05-17T15:14:29.633Z,95.00
2019-05-17T15:16:59.325Z,94.50
2019-05-17T15:19:28.799Z,95.10
2019-05-17T15:21:58.240Z,94.60
2019-05-17T15:24:27.693Z,95.00
2019-05-17T15:27:05.511Z,93.70
2019-05-17T15:29:28.516Z,93.60
2019-05-17T15:31:57.959Z,93.20
2019-05-17T15:34:27.482Z,93.80
2019-05-17T15:36:56.976Z,94.20
2019-05-17T15:39:26.428Z,94.40
2019-05-17T15:41:55.910Z,93.70
2019-05-17T15:44:27.072Z,93.80
2019-05-17T15:46:56.614Z,94.20
2019-05-17T15:49:26.074Z,93.90
2019-05-17T15:51:55.556Z,93.80
2019-05-17T15:54:26.383Z,93.00
2019-05-17T15:56:55.843Z,93.20
2019-05-17T15:59:25.320Z,92.40
2019-05-17T16:01:54.800Z,92.70
2019-05-17T16:04:24.269Z,92.60
2019-05-17T16:06:53.976Z,92.40
2019-05-17T16:09:25.278Z,91.70
2019-05-17T16:11:54.936Z,91.60
2019-05-17T16:14:26.940Z,91.20
2019-05-17T16:16:59.620Z,90.80
2019-05-17T16:19:29.159Z,90.80
2019-05-17T16:22:01.828Z,90.20
2019-05-17T16:24:31.262Z,90.20
2019-05-17T16:27:00.882Z,90.50
2019-05-17T16:29:30.399Z,88.10
2019-05-17T16:32:00.332Z,89.20
2019-05-17T16:34:30.409Z,89.00
2019-05-17T16:37:01.919Z,89.50
2019-05-17T16:39:34.640Z,91.20
2019-05-17T16:42:06.042Z,90.50
2019-05-17T16:44:38.435Z,90.20
2019-05-17T16:47:10.027Z,90.40
2019-05-17T16:49:41.179Z,91.00
2019-05-17T16:52:10.681Z,90.20
2019-05-17T16:54:40.127Z,90.30
2019-05-17T16:57:11.120Z,91.00
2019-05-17T16:59:41.083Z,91.00
2019-05-17T17:02:11.109Z,90.40
2019-05-17T17:04:42.172Z,90.70
2019-05-17T17:07:12.381Z,90.60
2019-05-17T17:09:44.544Z,90.70
2019-05-17T17:12:14.274Z,90.60
2019-05-17T17:14:45.539Z,90.40
2019-05-17T17:17:34.830Z,90.70
2019-05-17T17:20:08.987Z,90.90
2019-05-17T17:22:46.192Z,90.00
2019-05-17T17:25:20.734Z,90.50
2019-05-17T17:27:52.178Z,90.40
2019-05-17T17:30:22.426Z,90.70
2019-05-17T17:32:54.769Z,90.90
2019-05-17T17:35:25.985Z,90.80
2019-05-17T17:37:55.978Z,90.90
2019-05-17T17:40:31.600Z,91.30
2019-05-17T17:43:02.226Z,91.20
2019-05-17T17:45:33.307Z,91.30
2019-05-17T17:48:09.032Z,91.50
2019-05-17T17:50:41.873Z,91.70
2019-05-17T17:53:11.904Z,91.30
2019-05-17T17:55:44.261Z,91.40
2019-05-17T17:58:16.041Z,91.80
2019-05-17T18:00:45.870Z,91.80
2019-05-17T18:03:21.863Z,92.20
2019-05-17T18:05:53.300Z,92.10
2019-05-17T18:08:23.230Z,91.80
2019-05-17T18:10:54.153Z,91.90
2019-05-17T18:13:25.591Z,92.20
2019-05-17T18:15:55.446Z,92.10
2019-05-17T18:18:28.504Z,92.30
2019-05-17T18:20:59.118Z,92.50
2019-05-17T18:23:30.684Z,92.10
2019-05-17T18:26:00.307Z,92.30
2019-05-17T18:28:30.503Z,92.50
2019-05-17T18:31:02.927Z,92.30
2019-05-17T18:33:32.681Z,92.20
2019-05-17T18:36:02.242Z,92.50
2019-05-17T18:38:43.853Z,92.50
2019-05-17T18:41:13.977Z,92.50
2019-05-17T18:43:44.967Z,92.80
2019-05-17T18:46:15.267Z,93.00
2019-05-17T18:48:46.994Z,93.00
2019-05-17T18:51:18.166Z,93.10
2019-05-17T18:53:48.023Z,93.10
2019-05-17T18:56:17.765Z,93.40
2019-05-17T18:58:48.110Z,93.40
2019-05-17T19:01:18.643Z,93.20
2019-05-17T19:03:53.425Z,93.10
2019-05-17T19:06:23.625Z,92.70
2019-05-17T19:08:54.904Z,93.40
2019-05-17T19:11:26.515Z,93.90
2019-05-17T19:13:59.995Z,93.30
2019-05-17T19:16:35.600Z,93.60
2019-05-17T19:19:05.233Z,93.90
2019-05-17T19:21:34.730Z,92.90
2019-05-17T19:24:08.831Z,93.90
2019-05-17T19:26:41.105Z,94.30
2019-05-17T19:29:15.056Z,94.30
2019-05-17T19:31:53.056Z,94.10
2019-05-17T19:34:23.115Z,94.30
2019-05-17T19:36:59.044Z,94.30
2019-05-17T19:39:31.893Z,94.60
2019-05-17T19:42:08.933Z,93.60
2019-05-17T19:44:38.877Z,94.70
2019-05-17T19:47:12.627Z,94.80
2019-05-17T19:49:46.358Z,94.60
2019-05-17T19:52:21.361Z,94.60
2019-05-17T19:54:52.510Z,94.60
2019-05-17T19:57:28.391Z,93.40
2019-05-17T19:59:58.261Z,95.20
2019-05-17T20:02:29.870Z,95.70
2019-05-17T20:05:06.642Z,95.90
2019-05-17T20:07:39.407Z,95.80
2019-05-17T20:10:14.449Z,96.10
2019-05-17T20:12:52.465Z,95.90
2019-05-17T20:15:34.137Z,94.40
2019-05-17T20:17:56.725Z,95.20
2019-05-17T20:20:27.997Z,95.20
2019-05-17T20:23:02.033Z,96.00
2019-05-17T20:25:31.735Z,96.90
2019-05-17T20:28:06.933Z,96.20
2019-05-17T20:30:35.968Z,96.40
2019-05-17T20:33:10.494Z,96.10
2019-05-17T20:35:40.178Z,96.30
2019-05-17T20:38:16.640Z,95.40
2019-05-17T20:40:46.846Z,93.80
2019-05-17T20:43:18.104Z,95.20
2019-05-17T20:45:50.229Z,94.00
2019-05-17T20:48:21.912Z,95.30
2019-05-17T20:50:55.681Z,96.50
2019-05-17T20:53:25.371Z,96.70
2019-05-17T20:55:55.139Z,97.00
2019-05-17T20:58:27.504Z,97.60
2019-05-17T21:01:01.974Z,97.90
2019-05-17T21:03:32.219Z,97.70
2019-05-17T21:06:04.972Z,97.50
2019-05-17T21:08:45.721Z,97.30
2019-05-17T21:11:08.289Z,96.40
2019-05-17T21:13:41.022Z,96.70
2019-05-17T21:16:10.720Z,96.70
2019-05-17T21:18:40.324Z,96.80
2019-05-17T21:21:11.131Z,96.70
2019-05-17T21:23:51.986Z,97.10
2019-05-17T21:26:21.615Z,97.20
2019-05-17T21:28:53.148Z,97.50
2019-05-17T21:31:23.484Z,97.60
2019-05-17T21:33:53.306Z,98.10
2019-05-17T21:36:25.072Z,98.30
2019-05-17T21:38:54.604Z,97.50
2019-05-17T21:41:27.705Z,95.80
2019-05-17T21:43:57.738Z,97.20
2019-05-17T21:46:34.032Z,97.00
2019-05-17T21:49:05.007Z,97.80
2019-05-17T21:51:35.402Z,96.60
2019-05-17T21:54:13.906Z,96.60
2019-05-17T21:56:45.426Z,96.50
2019-05-17T21:59:18.165Z,96.00
2019-05-17T22:01:50.730Z,96.30
2019-05-17T22:04:20.900Z,96.40
2019-05-17T22:06:54.983Z,96.30
2019-05-17T22:09:26.617Z,96.20
2019-05-17T22:12:02.178Z,99.00
2019-05-17T22:14:33.083Z,96.90
2019-05-17T22:17:02.972Z,97.00
2019-05-17T22:19:32.690Z,96.90
2019-05-17T22:22:02.367Z,96.80
2019-05-17T22:24:35.402Z,97.20
2019-05-17T22:27:05.567Z,97.30
2019-05-17T22:29:35.254Z,97.80
2019-05-17T22:32:05.540Z,97.10
2019-05-17T22:34:35.589Z,97.20
2019-05-17T22:37:07.570Z,97.80
2019-05-17T22:39:38.607Z,97.90
2019-05-17T22:42:08.266Z,98.30
2019-05-17T22:44:37.872Z,98.90
2019-05-17T22:47:09.461Z,99.00
2019-05-17T22:49:41.967Z,99.20
2019-05-17T22:52:11.526Z,99.50
2019-05-17T22:54:42.964Z,99.80
2019-05-17T22:57:13.606Z,99.80
2019-05-17T22:59:43.806Z,99.90
2019-05-17T23:02:17.909Z,99.50
2019-05-17T23:04:50.030Z,99.00
2019-05-17T23:07:20.732Z,99.80
2019-05-17T23:09:50.170Z,99.90
2019-05-17T23:12:22.800Z,99.90
2019-05-17T23:14:55.443Z,99.20
2019-05-17T23:17:24.873Z,98.60
2019-05-17T23:19:57.703Z,99.20
2019-05-17T23:22:27.287Z,99.40
2019-05-17T23:24:58.586Z,99.40
2019-05-17T23:27:32.481Z,99.90
2019-05-17T23:30:07.633Z,99.80
2019-05-17T23:32:38.721Z,99.90
2019-05-17T23:35:08.430Z,99.90
2019-05-17T23:37:37.947Z,99.90
2019-05-17T23:40:08.249Z,99.70
2019-05-17T23:42:37.683Z,99.80
2019-05-17T23:45:10.900Z,99.60
2019-05-17T23:47:40.356Z,99.90
2019-05-17T23:50:10.417Z,98.90
2019-05-17T23:52:39.894Z,99.90
2019-05-17T23:55:09.928Z,99.90
2019-05-17T23:57:39.395Z,99.90
